createdAt,value
2019-02-14T00:01:48.935Z,96.60
2019-02-14T00:04:57.554Z,96.60
2019-02-14T00:08:16.377Z,96.70
2019-02-14T00:11:25.140Z,96.70
2019-02-14T00:14:33.759Z,96.50
2019-02-14T00:17:42.380Z,97.10
2019-02-14T00:20:50.992Z,96.60
2019-02-14T00:23:59.286Z,96.40
2019-02-14T00:27:18.260Z,96.40
2019-02-14T00:30:26.832Z,96.60
2019-02-14T00:33:35.482Z,96.70
2019-02-14T00:36:44.005Z,96.60
2019-02-14T00:39:52.840Z,96.40
2019-02-14T00:43:01.551Z,96.50
2019-02-14T00:46:10.310Z,96.20
2019-02-14T00:49:20.467Z,96.40
2019-02-14T00:52:29.312Z,96.50
2019-02-14T00:55:37.898Z,96.50
2019-02-14T00:58:56.681Z,96.50
2019-02-14T01:02:05.300Z,96.60
2019-02-14T01:05:13.882Z,96.50
2019-02-14T01:08:22.535Z,96.50
2019-02-14T01:11:31.058Z,96.40
2019-02-14T01:14:39.748Z,96.10
2019-02-14T01:17:48.406Z,96.20
2019-02-14T01:21:07.288Z,96.30
2019-02-14T01:24:15.875Z,96.60
2019-02-14T01:27:24.554Z,96.50
2019-02-14T01:30:33.361Z,96.40
2019-02-14T01:33:42.042Z,96.60
2019-02-14T01:36:50.663Z,96.60
2019-02-14T01:39:59.374Z,96.60
2019-02-14T01:43:07.999Z,96.50
2019-02-14T01:46:16.722Z,96.20
2019-02-14T01:49:25.390Z,96.30
2019-02-14T01:52:44.286Z,96.20
2019-02-14T01:55:52.948Z,96.20
2019-02-14T01:59:01.559Z,96.10
2019-02-14T02:02:10.190Z,96.20
2019-02-14T02:05:18.789Z,96.00
2019-02-14T02:08:27.478Z,96.10
2019-02-14T02:11:36.098Z,96.30
2019-02-14T02:14:54.820Z,96.20
2019-02-14T02:18:03.635Z,96.20
2019-02-14T02:21:12.258Z,96.30
2019-02-14T02:24:22.368Z,96.40
2019-02-14T02:27:31.326Z,96.40
2019-02-14T02:30:39.949Z,96.60
2019-02-14T02:33:48.596Z,96.60
2019-02-14T02:36:57.184Z,96.60
2019-02-14T02:40:06.454Z,96.70
2019-02-14T02:43:15.032Z,96.70
2019-02-14T02:46:23.660Z,96.90
2019-02-14T02:49:32.286Z,96.90
2019-02-14T02:52:41.008Z,96.90
2019-02-14T02:55:59.788Z,97.10
2019-02-14T02:59:08.473Z,96.70
2019-02-14T03:02:17.197Z,96.70
2019-02-14T03:05:25.923Z,96.60
2019-02-14T03:08:35.668Z,96.50
2019-02-14T03:11:44.256Z,96.50
2019-02-14T03:15:03.526Z,96.40
2019-02-14T03:18:13.146Z,96.40
2019-02-14T03:21:21.791Z,96.30
2019-02-14T03:24:30.431Z,96.30
2019-02-14T03:27:39.065Z,96.70
2019-02-14T03:30:47.874Z,96.70
2019-02-14T03:33:56.482Z,96.60
2019-02-14T03:37:15.366Z,96.30
2019-02-14T03:40:24.022Z,96.10
2019-02-14T03:43:32.749Z,96.10
2019-02-14T03:46:41.378Z,96.10
2019-02-14T03:49:49.897Z,96.00
2019-02-14T03:52:58.397Z,96.10
2019-02-14T03:56:07.014Z,96.10
2019-02-14T03:59:25.877Z,96.00
2019-02-14T04:02:34.495Z,95.80
2019-02-14T04:05:43.127Z,95.90
2019-02-14T04:08:51.715Z,95.90
2019-02-14T04:12:00.322Z,95.80
2019-02-14T04:15:11.981Z,95.60
2019-02-14T04:18:30.832Z,95.70
2019-02-14T04:21:39.449Z,95.70
2019-02-14T04:24:48.023Z,95.60
2019-02-14T04:27:56.567Z,95.70
2019-02-14T04:31:05.210Z,95.60
2019-02-14T04:34:13.834Z,95.70
2019-02-14T04:37:32.583Z,95.90
2019-02-14T04:40:41.229Z,95.60
2019-02-14T04:43:49.784Z,95.80
2019-02-14T04:46:58.271Z,95.80
2019-02-14T04:50:07.681Z,95.60
2019-02-14T04:53:16.173Z,95.60
2019-02-14T04:56:24.931Z,95.80
2019-02-14T04:59:33.563Z,95.80
2019-02-14T05:02:42.149Z,96.20
2019-02-14T05:05:50.739Z,95.90
2019-02-14T05:09:11.841Z,95.80
2019-02-14T05:12:30.451Z,95.70
2019-02-14T05:15:39.048Z,95.50
2019-02-14T05:18:47.534Z,95.80
2019-02-14T05:21:56.144Z,95.60
2019-02-14T05:25:04.863Z,95.50
2019-02-14T05:28:13.440Z,95.50
2019-02-14T05:31:32.246Z,95.60
2019-02-14T05:34:40.858Z,95.50
2019-02-14T05:37:49.451Z,95.40
2019-02-14T05:40:57.999Z,95.40
2019-02-14T05:44:06.583Z,95.40
2019-02-14T05:47:15.253Z,95.50
2019-02-14T05:50:23.813Z,95.70
2019-02-14T05:53:31.473Z,95.50
2019-02-14T05:56:40.020Z,95.50
2019-02-14T05:59:58.776Z,95.50
2019-02-14T06:03:07.390Z,95.60
2019-02-14T06:06:16.088Z,95.50
2019-02-14T06:09:24.779Z,95.40
2019-02-14T06:12:33.512Z,95.40
2019-02-14T06:15:43.095Z,95.30
2019-02-14T06:19:02.176Z,95.10
2019-02-14T06:22:10.743Z,95.20
2019-02-14T06:25:19.344Z,95.00
2019-02-14T06:28:27.915Z,95.50
2019-02-14T06:31:36.503Z,95.20
2019-02-14T06:34:45.048Z,94.90
2019-02-14T06:38:03.863Z,94.90
2019-02-14T06:41:12.452Z,94.90
2019-02-14T06:44:21.258Z,94.80
2019-02-14T06:47:30.854Z,94.90
2019-02-14T06:50:49.634Z,94.90
2019-02-14T06:53:58.263Z,94.70
2019-02-14T06:57:06.825Z,95.30
2019-02-14T07:00:17.821Z,94.60
2019-02-14T07:03:26.416Z,94.50
2019-02-14T07:06:35.206Z,94.70
2019-02-14T07:09:43.931Z,94.60
2019-02-14T07:12:52.538Z,94.30
2019-02-14T07:16:01.124Z,94.60
2019-02-14T07:19:09.747Z,94.50
2019-02-14T07:22:18.364Z,94.40
2019-02-14T07:25:37.002Z,94.20
2019-02-14T07:28:46.834Z,94.20
2019-02-14T07:31:55.417Z,94.40
2019-02-14T07:35:04.170Z,94.30
2019-02-14T07:38:12.803Z,94.20
2019-02-14T07:41:22.638Z,94.30
2019-02-14T07:44:31.171Z,94.30
2019-02-14T07:47:39.736Z,94.10
2019-02-14T07:50:48.260Z,94.00
2019-02-14T07:53:56.851Z,93.80
2019-02-14T07:57:05.500Z,93.70
2019-02-14T08:00:24.427Z,93.60
2019-02-14T08:03:33.002Z,93.50
2019-02-14T08:06:41.586Z,93.70
2019-02-14T08:09:50.250Z,93.70
2019-02-14T08:12:57.491Z,93.80
2019-02-14T08:16:06.280Z,93.90
2019-02-14T08:19:13.506Z,93.60
2019-02-14T08:22:22.028Z,93.50
2019-02-14T08:25:30.609Z,93.10
2019-02-14T08:28:39.315Z,93.20
2019-02-14T08:31:58.213Z,93.20
2019-02-14T08:35:07.383Z,93.10
2019-02-14T08:38:26.293Z,93.10
2019-02-14T08:41:35.338Z,93.10
2019-02-14T08:44:43.867Z,92.90
2019-02-14T08:47:54.007Z,92.90
2019-02-14T08:51:02.734Z,92.90
2019-02-14T08:54:12.242Z,92.80
2019-02-14T08:57:31.246Z,92.70
2019-02-14T09:00:39.905Z,92.90
2019-02-14T09:03:48.501Z,92.70
2019-02-14T09:06:57.227Z,92.70
2019-02-14T09:10:07.009Z,92.40
2019-02-14T09:13:25.700Z,92.20
2019-02-14T09:16:35.407Z,92.20
2019-02-14T09:19:43.955Z,92.40
2019-02-14T09:23:02.727Z,92.20
2019-02-14T09:26:11.757Z,91.90
2019-02-14T09:29:20.287Z,91.80
2019-02-14T09:32:28.792Z,91.90
2019-02-14T09:35:37.391Z,91.10
2019-02-14T09:38:45.979Z,90.50
2019-02-14T09:41:54.561Z,86.40
2019-02-14T09:45:03.147Z,82.50
2019-02-14T09:48:22.654Z,79.40
2019-02-14T09:51:41.791Z,75.70
2019-02-14T09:55:00.835Z,73.70
2019-02-14T09:58:09.538Z,73.70
2019-02-14T10:01:18.529Z,70.30
2019-02-14T10:04:27.016Z,72.20
2019-02-14T10:07:35.621Z,71.30
2019-02-14T10:10:44.307Z,73.00
2019-02-14T10:13:52.944Z,73.40
2019-02-14T10:17:01.464Z,73.80
2019-02-14T10:20:13.062Z,75.40
2019-02-14T10:23:21.555Z,74.30
2019-02-14T10:26:30.149Z,75.20
2019-02-14T10:29:38.872Z,77.00
2019-02-14T10:32:47.496Z,77.00
2019-02-14T10:35:56.104Z,78.40
2019-02-14T10:39:05.570Z,78.80
2019-02-14T10:42:14.500Z,78.20
2019-02-14T10:45:23.084Z,78.70
2019-02-14T10:48:31.579Z,79.20
2019-02-14T10:51:40.338Z,78.50
2019-02-14T10:54:48.938Z,77.80
2019-02-14T10:57:57.546Z,78.40
2019-02-14T11:01:06.946Z,77.80
2019-02-14T11:04:15.657Z,77.90
2019-02-14T11:07:24.152Z,79.00
2019-02-14T11:10:33.957Z,79.40
2019-02-14T11:13:52.953Z,77.60
2019-02-14T11:17:01.687Z,76.30
2019-02-14T11:20:12.852Z,74.50
2019-02-14T11:23:22.598Z,73.40
2019-02-14T11:26:31.425Z,73.10
2019-02-14T11:29:40.281Z,70.70
2019-02-14T11:32:49.579Z,67.70
2019-02-14T11:35:58.331Z,63.90
2019-02-14T11:39:17.144Z,58.90
2019-02-14T11:42:25.865Z,57.00
2019-02-14T11:45:34.486Z,54.90
2019-02-14T11:48:43.153Z,53.70
2019-02-14T11:51:51.691Z,52.60
2019-02-14T11:55:02.340Z,52.60
2019-02-14T11:58:09.583Z,51.70
2019-02-14T12:01:18.278Z,51.00
2019-02-14T12:04:26.922Z,50.50
2019-02-14T12:07:35.424Z,49.30
2019-02-14T12:10:44.039Z,46.80
2019-02-14T12:14:02.866Z,45.30
2019-02-14T12:17:11.462Z,45.10
2019-02-14T12:20:19.984Z,45.50
2019-02-14T12:23:28.484Z,44.10
2019-02-14T12:26:37.005Z,44.20
2019-02-14T12:29:55.925Z,44.10
2019-02-14T12:33:04.426Z,43.20
2019-02-14T12:36:12.977Z,42.10
2019-02-14T12:39:22.082Z,40.60
2019-02-14T12:42:30.682Z,41.20
2019-02-14T12:45:39.187Z,41.10
2019-02-14T12:48:48.258Z,41.40
2019-02-14T12:51:56.916Z,41.90
2019-02-14T12:55:05.640Z,41.50
2019-02-14T12:58:14.630Z,40.70
2019-02-14T13:01:23.278Z,40.60
2019-02-14T13:04:31.780Z,40.60
2019-02-14T13:07:40.255Z,40.50
2019-02-14T13:10:47.503Z,39.30
2019-02-14T13:14:06.420Z,38.40
2019-02-14T13:17:15.041Z,37.30
2019-02-14T13:20:24.491Z,37.10
2019-02-14T13:23:45.629Z,36.80
2019-02-14T13:26:55.377Z,36.60
2019-02-14T13:30:03.911Z,36.20
2019-02-14T13:33:12.417Z,36.40
2019-02-14T13:36:31.256Z,36.40
2019-02-14T13:39:39.896Z,35.70
2019-02-14T13:42:48.406Z,35.70
2019-02-14T13:45:56.942Z,36.60
2019-02-14T13:49:05.419Z,35.70
2019-02-14T13:52:24.219Z,35.60
2019-02-14T13:55:32.741Z,35.20
2019-02-14T13:58:41.297Z,33.50
2019-02-14T14:01:50.053Z,34.80
2019-02-14T14:05:00.694Z,34.90
2019-02-14T14:08:09.281Z,34.40
2019-02-14T14:11:17.876Z,36.70
2019-02-14T14:14:28.248Z,36.70
2019-02-14T14:17:37.874Z,37.90
2019-02-14T14:20:46.444Z,38.40
2019-02-14T14:23:56.983Z,39.30
2019-02-14T14:27:05.587Z,40.80
2019-02-14T14:30:14.382Z,41.90
2019-02-14T14:33:22.902Z,44.10
2019-02-14T14:36:31.422Z,45.10
2019-02-14T14:39:47.608Z,46.70
2019-02-14T14:43:09.146Z,48.20
2019-02-14T14:46:36.616Z,49.10
2019-02-14T14:49:45.337Z,50.00
2019-02-14T14:52:53.836Z,50.90
2019-02-14T14:56:02.285Z,52.30
2019-02-14T14:59:21.173Z,52.90
2019-02-14T15:02:29.781Z,53.50
2019-02-14T15:05:38.330Z,53.70
2019-02-14T15:08:46.807Z,53.80
2019-02-14T15:11:55.384Z,54.10
2019-02-14T15:15:14.128Z,54.20
2019-02-14T15:18:22.720Z,55.40
2019-02-14T15:21:33.434Z,55.70
2019-02-14T15:24:42.051Z,57.40
2019-02-14T15:27:50.548Z,57.20
2019-02-14T15:30:59.138Z,57.50
2019-02-14T15:34:07.728Z,58.00
2019-02-14T15:37:17.959Z,58.20
2019-02-14T15:40:26.850Z,58.60
2019-02-14T15:43:45.571Z,59.20
2019-02-14T15:46:54.191Z,60.00
2019-02-14T15:50:05.604Z,60.70
2019-02-14T15:53:13.006Z,62.00
2019-02-14T15:56:21.484Z,62.50
2019-02-14T15:59:29.983Z,63.50
2019-02-14T16:02:50.376Z,63.40
2019-02-14T16:05:59.044Z,65.00
2019-02-14T16:09:08.148Z,66.00
2019-02-14T16:12:26.175Z,67.10
2019-02-14T16:15:46.694Z,67.90
2019-02-14T16:18:55.260Z,67.90
2019-02-14T16:22:03.738Z,69.30
2019-02-14T16:25:12.371Z,69.50
2019-02-14T16:28:20.951Z,69.80
2019-02-14T16:31:39.643Z,70.50
2019-02-14T16:34:48.285Z,70.40
2019-02-14T16:37:56.754Z,70.50
2019-02-14T16:41:05.299Z,71.10
2019-02-14T16:44:13.970Z,71.80
2019-02-14T16:47:23.717Z,72.70
2019-02-14T16:50:32.259Z,73.70
2019-02-14T16:53:40.821Z,73.80
2019-02-14T16:57:46.681Z,74.10
2019-02-14T17:01:25.571Z,74.70
2019-02-14T17:04:37.510Z,75.30
2019-02-14T17:08:07.234Z,77.30
2019-02-14T17:11:14.907Z,77.00
2019-02-14T17:14:23.388Z,78.70
2019-02-14T17:17:42.250Z,78.20
2019-02-14T17:20:50.975Z,78.40
2019-02-14T17:23:59.595Z,80.60
2019-02-14T17:27:08.140Z,80.80
2019-02-14T17:30:16.785Z,79.00
2019-02-14T17:33:25.455Z,79.60
2019-02-14T17:36:34.052Z,81.00
2019-02-14T17:39:52.848Z,81.20
2019-02-14T17:43:01.470Z,81.70
2019-02-14T17:46:09.968Z,83.00
2019-02-14T17:49:18.468Z,81.10
2019-02-14T17:52:27.005Z,81.00
2019-02-14T17:55:47.575Z,81.60
2019-02-14T17:58:57.109Z,81.00
2019-02-14T18:02:05.654Z,80.80
2019-02-14T18:05:14.152Z,81.00
2019-02-14T18:08:33.098Z,81.10
2019-02-14T18:11:42.535Z,81.00
2019-02-14T18:14:51.409Z,80.70
2019-02-14T18:18:00.542Z,81.40
2019-02-14T18:21:09.328Z,82.20
2019-02-14T18:24:17.815Z,82.50
2019-02-14T18:27:26.321Z,82.60
2019-02-14T18:30:45.273Z,82.70
2019-02-14T18:33:54.086Z,82.40
2019-02-14T18:37:02.595Z,81.80
2019-02-14T18:40:11.709Z,82.40
2019-02-14T18:43:20.310Z,83.40
2019-02-14T18:46:28.820Z,83.50
2019-02-14T18:49:37.444Z,83.30
2019-02-14T18:52:45.972Z,83.40
2019-02-14T18:55:54.456Z,83.30
2019-02-14T18:59:13.382Z,84.10
2019-02-14T19:02:22.737Z,84.20
2019-02-14T19:05:41.556Z,84.30
2019-02-14T19:08:50.088Z,84.60
2019-02-14T19:11:58.568Z,84.20
2019-02-14T19:15:08.623Z,84.90
2019-02-14T19:18:17.245Z,84.90
2019-02-14T19:21:36.097Z,84.70
2019-02-14T19:24:44.620Z,85.10
2019-02-14T19:27:53.111Z,84.80
2019-02-14T19:31:01.593Z,84.20
2019-02-14T19:34:20.259Z,84.40
2019-02-14T19:37:28.836Z,84.90
2019-02-14T19:40:37.454Z,85.20
2019-02-14T19:43:45.899Z,85.80
2019-02-14T19:46:54.390Z,85.80
2019-02-14T19:50:13.235Z,86.00
2019-02-14T19:53:21.827Z,85.90
2019-02-14T19:56:30.486Z,85.90
2019-02-14T19:59:39.005Z,86.40
2019-02-14T20:02:47.477Z,86.70
2019-02-14T20:06:06.191Z,86.50
2019-02-14T20:09:14.795Z,86.10
2019-02-14T20:12:23.394Z,86.60
2019-02-14T20:15:37.063Z,87.10
2019-02-14T20:18:42.146Z,87.10
2019-02-14T20:21:50.808Z,86.70
2019-02-14T20:24:59.407Z,86.60
2019-02-14T20:28:18.346Z,86.80
2019-02-14T20:31:26.870Z,86.80
2019-02-14T20:34:35.424Z,86.50
2019-02-14T20:37:43.932Z,86.70
2019-02-14T20:40:52.411Z,86.90
2019-02-14T20:44:11.312Z,87.00
2019-02-14T20:47:19.859Z,87.00
2019-02-14T20:50:28.449Z,86.80
2019-02-14T20:53:36.893Z,87.30
2019-02-14T20:56:45.377Z,87.70
2019-02-14T21:00:06.045Z,86.80
2019-02-14T21:03:14.714Z,86.90
2019-02-14T21:06:23.195Z,86.50
2019-02-14T21:09:31.672Z,86.90
2019-02-14T21:12:40.152Z,87.20
2019-02-14T21:15:58.869Z,86.80
2019-02-14T21:19:07.452Z,86.70
2019-02-14T21:22:18.577Z,87.30
2019-02-14T21:25:26.131Z,87.80
2019-02-14T21:28:34.776Z,88.50
2019-02-14T21:31:43.355Z,88.60
2019-02-14T21:35:02.601Z,88.30
2019-02-14T21:38:21.531Z,88.30
2019-02-14T21:41:30.051Z,88.20
2019-02-14T21:44:38.590Z,87.80
2019-02-14T21:47:47.078Z,88.10
2019-02-14T21:50:55.599Z,88.90
2019-02-14T21:54:17.480Z,89.30
2019-02-14T21:57:24.916Z,88.90
2019-02-14T22:00:33.647Z,89.50
2019-02-14T22:03:42.231Z,89.80
2019-02-14T22:06:50.912Z,89.90
2019-02-14T22:09:59.580Z,90.20
2019-02-14T22:13:08.095Z,90.10
2019-02-14T22:16:16.636Z,90.10
2019-02-14T22:19:35.441Z,90.10
2019-02-14T22:22:44.019Z,90.60
2019-02-14T22:25:52.524Z,90.30
2019-02-14T22:29:01.017Z,90.40
2019-02-14T22:32:09.497Z,90.70
2019-02-14T22:35:28.499Z,90.60
2019-02-14T22:38:37.041Z,90.80
2019-02-14T22:41:45.547Z,90.90
2019-02-14T22:44:54.060Z,91.00
2019-02-14T22:48:02.545Z,90.90
2019-02-14T22:51:21.455Z,91.00
2019-02-14T22:54:30.042Z,90.90
2019-02-14T22:57:38.517Z,91.10
2019-02-14T23:00:54.149Z,91.30
2019-02-14T23:04:02.641Z,91.40
2019-02-14T23:07:11.200Z,91.30
2019-02-14T23:10:19.799Z,91.30
2019-02-14T23:13:38.441Z,91.30
2019-02-14T23:16:46.918Z,91.20
2019-02-14T23:19:55.498Z,91.30
2019-02-14T23:23:04.047Z,91.30
2019-02-14T23:26:12.652Z,91.30
2019-02-14T23:29:31.388Z,91.60
2019-02-14T23:32:39.858Z,91.60
2019-02-14T23:35:48.368Z,91.80
2019-02-14T23:38:56.843Z,91.60
2019-02-14T23:42:15.732Z,91.80
2019-02-14T23:45:35.052Z,92.00
2019-02-14T23:48:43.544Z,92.00
2019-02-14T23:51:52.021Z,91.90
2019-02-14T23:55:10.896Z,91.80
2019-02-14T23:58:19.396Z,91.90
